GFA525 OTHH-OBBI
Flight info
| Callsign | GFA525 |
|---|---|
| Flight time | 0h 20m |
| Altitude | 12000 |
| Route | TULUB2A/34L TULUB M444 KINID DCT BHR |
| Aircraft | A321/M-SDE3FGHIRWY/LB1 |
Departure
| Time | 2026-02-18 12:28 |
|---|---|
| Airport | Hamad International Airport (OTHH) |
Arrival
| Time | 2026-02-18 12:49 |
|---|---|
| Airport | Bahrain International Airport (OBBI) |
| Time | Latitude | Longitude | Altitude | Speed | Heading |
|---|---|---|---|---|---|
| 2026-02-18 11:50 | 25.26316 | 51.61590 | 30 ft | 0 kts | 159° |
| 2026-02-18 12:17 | 25.26316 | 51.61589 | 30 ft | 0 kts | 159° |
| 2026-02-18 12:17 | 25.26328 | 51.61584 | 30 ft | 3 kts | 159° |
| 2026-02-18 12:18 | 25.26347 | 51.61576 | 30 ft | 3 kts | 159° |
| 2026-02-18 12:18 | 25.26366 | 51.61568 | 30 ft | 3 kts | 159° |
| 2026-02-18 12:18 | 25.26384 | 51.61560 | 30 ft | 3 kts | 152° |
| 2026-02-18 12:18 | 25.26400 | 51.61549 | 30 ft | 3 kts | 118° |
| 2026-02-18 12:19 | 25.26403 | 51.61535 | 30 ft | 1 kts | 69° |
| 2026-02-18 12:19 | 25.26398 | 51.61522 | 30 ft | 3 kts | 68° |
| 2026-02-18 12:19 | 25.26394 | 51.61510 | 30 ft | 0 kts | 68° |
| 2026-02-18 12:21 | 25.26416 | 51.61570 | 30 ft | 13 kts | 68° |
| 2026-02-18 12:21 | 25.26460 | 51.61693 | 30 ft | 22 kts | 68° |
| 2026-02-18 12:22 | 25.26526 | 51.61870 | 30 ft | 24 kts | 64° |
| 2026-02-18 12:22 | 25.26650 | 51.61881 | 29 ft | 19 kts | 340° |
| 2026-02-18 12:22 | 25.26786 | 51.61821 | 29 ft | 24 kts | 338° |
| 2026-02-18 12:22 | 25.26940 | 51.61754 | 29 ft | 23 kts | 338° |
| 2026-02-18 12:23 | 25.27090 | 51.61688 | 30 ft | 23 kts | 338° |
| 2026-02-18 12:23 | 25.27239 | 51.61622 | 30 ft | 23 kts | 338° |
| 2026-02-18 12:23 | 25.27386 | 51.61558 | 29 ft | 22 kts | 335° |
| 2026-02-18 12:23 | 25.27403 | 51.61422 | 30 ft | 19 kts | 247° |
| 2026-02-18 12:24 | 25.27354 | 51.61288 | 30 ft | 18 kts | 248° |
| 2026-02-18 12:24 | 25.27306 | 51.61156 | 30 ft | 19 kts | 248° |
| 2026-02-18 12:24 | 25.27256 | 51.61019 | 30 ft | 22 kts | 248° |
| 2026-02-18 12:24 | 25.27189 | 51.60834 | 30 ft | 27 kts | 248° |
| 2026-02-18 12:25 | 25.27118 | 51.60642 | 30 ft | 27 kts | 248° |
| 2026-02-18 12:25 | 25.26983 | 51.60269 | 30 ft | 26 kts | 248° |
| 2026-02-18 12:25 | 25.26886 | 51.60152 | 28 ft | 20 kts | 171° |
| 2026-02-18 12:26 | 25.26756 | 51.60209 | 28 ft | 20 kts | 158° |
| 2026-02-18 12:26 | 25.26672 | 51.60246 | 28 ft | 19 kts | 159° |
| 2026-02-18 12:26 | 25.26507 | 51.60318 | 29 ft | 21 kts | 158° |
| 2026-02-18 12:26 | 25.26407 | 51.60363 | 29 ft | 24 kts | 158° |
| 2026-02-18 12:27 | 25.26208 | 51.60451 | 30 ft | 23 kts | 158° |
| 2026-02-18 12:27 | 25.26104 | 51.60436 | 29 ft | 14 kts | 242° |
| 2026-02-18 12:27 | 25.26076 | 51.60368 | 28 ft | 15 kts | 256° |
| 2026-02-18 12:27 | 25.26190 | 51.60254 | 29 ft | 40 kts | 339° |
| 2026-02-18 12:28 | 25.26668 | 51.60046 | 26 ft | 107 kts | 338° |
| 2026-02-18 12:28 | 25.27534 | 51.59666 | 25 ft | 158 kts | 338° |
| 2026-02-18 12:28 | 25.28618 | 51.59198 | 435 ft | 164 kts | 341° |
| 2026-02-18 12:28 | 25.29678 | 51.58736 | 1026 ft | 166 kts | 339° |
| 2026-02-18 12:29 | 25.30806 | 51.58234 | 1341 ft | 185 kts | 339° |
| 2026-02-18 12:29 | 25.33481 | 51.57045 | 1738 ft | 231 kts | 339° |
| 2026-02-18 12:29 | 25.35055 | 51.56347 | 2078 ft | 256 kts | 339° |
| 2026-02-18 12:30 | 25.36753 | 51.55597 | 2766 ft | 266 kts | 339° |
| 2026-02-18 12:30 | 25.38488 | 51.54830 | 3623 ft | 271 kts | 339° |
| 2026-02-18 12:30 | 25.40249 | 51.54050 | 4452 ft | 276 kts | 339° |
| 2026-02-18 12:30 | 25.42051 | 51.53251 | 5265 ft | 281 kts | 338° |
| 2026-02-18 12:31 | 25.43887 | 51.52434 | 6059 ft | 287 kts | 338° |
| 2026-02-18 12:31 | 25.45760 | 51.51601 | 6835 ft | 292 kts | 339° |
| 2026-02-18 12:31 | 25.47685 | 51.50870 | 7659 ft | 292 kts | 351° |
| 2026-02-18 12:31 | 25.49696 | 51.50810 | 8544 ft | 289 kts | 11° |
| 2026-02-18 12:32 | 25.51624 | 51.51371 | 9422 ft | 285 kts | 18° |
| 2026-02-18 12:32 | 25.53527 | 51.52000 | 9854 ft | 284 kts | 18° |
| 2026-02-18 12:32 | 25.55415 | 51.52621 | 9979 ft | 282 kts | 18° |
| 2026-02-18 12:32 | 25.57296 | 51.53237 | 10143 ft | 287 kts | 18° |
| 2026-02-18 12:33 | 25.59288 | 51.53891 | 10331 ft | 310 kts | 18° |
| 2026-02-18 12:33 | 25.63728 | 51.55235 | 10825 ft | 346 kts | 10° |
| 2026-02-18 12:33 | 25.66146 | 51.55363 | 11418 ft | 352 kts | 358° |
| 2026-02-18 12:34 | 25.68580 | 51.54918 | 11859 ft | 357 kts | 346° |
| 2026-02-18 12:34 | 25.70953 | 51.54092 | 11976 ft | 361 kts | 344° |
| 2026-02-18 12:34 | 25.73413 | 51.53211 | 12008 ft | 379 kts | 344° |
| 2026-02-18 12:34 | 25.75945 | 51.52297 | 12007 ft | 385 kts | 344° |
| 2026-02-18 12:35 | 25.78460 | 51.51387 | 12007 ft | 386 kts | 344° |
| 2026-02-18 12:35 | 25.81042 | 51.50442 | 12007 ft | 386 kts | 342° |
| 2026-02-18 12:35 | 25.83440 | 51.49171 | 12006 ft | 389 kts | 331° |
| 2026-02-18 12:35 | 25.85609 | 51.47350 | 12007 ft | 393 kts | 320° |
| 2026-02-18 12:36 | 25.87429 | 51.45067 | 12012 ft | 396 kts | 310° |
| 2026-02-18 12:36 | 25.89120 | 51.42645 | 12007 ft | 396 kts | 310° |
| 2026-02-18 12:36 | 25.90813 | 51.40226 | 12010 ft | 396 kts | 310° |
| 2026-02-18 12:36 | 25.92504 | 51.37810 | 12010 ft | 397 kts | 310° |
| 2026-02-18 12:37 | 25.94198 | 51.35389 | 12012 ft | 397 kts | 310° |
| 2026-02-18 12:37 | 25.97494 | 51.30468 | 12002 ft | 399 kts | 303° |
| 2026-02-18 12:37 | 25.98796 | 51.27741 | 12005 ft | 400 kts | 300° |
| 2026-02-18 12:38 | 26.00081 | 51.24990 | 12007 ft | 401 kts | 300° |
| 2026-02-18 12:38 | 26.01369 | 51.22239 | 12009 ft | 401 kts | 300° |
| 2026-02-18 12:38 | 26.02654 | 51.19491 | 12011 ft | 401 kts | 300° |
| 2026-02-18 12:38 | 26.03941 | 51.16736 | 12018 ft | 401 kts | 300° |
| 2026-02-18 12:39 | 26.05223 | 51.13995 | 12014 ft | 397 kts | 300° |
| 2026-02-18 12:39 | 26.06452 | 51.11359 | 11833 ft | 383 kts | 300° |
| 2026-02-18 12:39 | 26.07667 | 51.08752 | 11356 ft | 377 kts | 300° |
| 2026-02-18 12:39 | 26.08888 | 51.06191 | 10824 ft | 374 kts | 300° |
| 2026-02-18 12:40 | 26.10075 | 51.03665 | 10615 ft | 361 kts | 300° |
| 2026-02-18 12:40 | 26.11173 | 51.01217 | 10498 ft | 346 kts | 298° |
| 2026-02-18 12:40 | 26.12190 | 50.98844 | 10378 ft | 333 kts | 297° |
| 2026-02-18 12:40 | 26.13139 | 50.96553 | 10262 ft | 320 kts | 297° |
| 2026-02-18 12:41 | 26.14057 | 50.94365 | 10045 ft | 302 kts | 300° |
| 2026-02-18 12:41 | 26.16148 | 50.90448 | 8572 ft | 290 kts | 304° |
| 2026-02-18 12:41 | 26.17233 | 50.88581 | 8027 ft | 280 kts | 303° |
| 2026-02-18 12:42 | 26.18287 | 50.86774 | 7130 ft | 285 kts | 302° |
| 2026-02-18 12:42 | 26.19370 | 50.84923 | 6327 ft | 286 kts | 302° |
| 2026-02-18 12:42 | 26.20457 | 50.83068 | 5541 ft | 284 kts | 302° |
| 2026-02-18 12:42 | 26.21529 | 50.81238 | 4835 ft | 280 kts | 302° |
| 2026-02-18 12:43 | 26.22583 | 50.79440 | 4119 ft | 275 kts | 302° |
| 2026-02-18 12:43 | 26.23621 | 50.77667 | 3429 ft | 271 kts | 302° |
| 2026-02-18 12:43 | 26.24641 | 50.75924 | 2949 ft | 267 kts | 302° |
| 2026-02-18 12:43 | 26.25653 | 50.74195 | 2539 ft | 265 kts | 302° |
| 2026-02-18 12:44 | 26.26631 | 50.72523 | 2135 ft | 250 kts | 302° |
| 2026-02-18 12:44 | 26.27571 | 50.70917 | 1818 ft | 243 kts | 302° |
| 2026-02-18 12:44 | 26.28472 | 50.69378 | 1509 ft | 233 kts | 302° |
| 2026-02-18 12:44 | 26.29310 | 50.67946 | 1496 ft | 213 kts | 302° |
| 2026-02-18 12:45 | 26.30106 | 50.66585 | 1505 ft | 207 kts | 302° |
| 2026-02-18 12:45 | 26.31664 | 50.63918 | 1498 ft | 204 kts | 302° |
| 2026-02-18 12:45 | 26.32438 | 50.62589 | 1487 ft | 205 kts | 302° |
| 2026-02-18 12:46 | 26.33211 | 50.61258 | 1471 ft | 201 kts | 302° |
| 2026-02-18 12:46 | 26.33850 | 50.59967 | 1426 ft | 181 kts | 286° |
| 2026-02-18 12:46 | 26.33889 | 50.58644 | 1321 ft | 167 kts | 253° |
| 2026-02-18 12:46 | 26.33233 | 50.57663 | 1167 ft | 158 kts | 208° |
| 2026-02-18 12:47 | 26.32185 | 50.57415 | 1042 ft | 155 kts | 180° |
| 2026-02-18 12:47 | 26.31133 | 50.57591 | 1013 ft | 154 kts | 161° |
| 2026-02-18 12:47 | 26.30232 | 50.58230 | 903 ft | 151 kts | 136° |
| 2026-02-18 12:47 | 26.29587 | 50.59118 | 679 ft | 145 kts | 127° |
| 2026-02-18 12:48 | 26.29009 | 50.59995 | 507 ft | 142 kts | 123° |
| 2026-02-18 12:48 | 26.28490 | 50.60922 | 298 ft | 139 kts | 121° |
| 2026-02-18 12:48 | 26.27976 | 50.61815 | 95 ft | 136 kts | 122° |
| 2026-02-18 12:48 | 26.27470 | 50.62668 | 21 ft | 122 kts | 121° |
| 2026-02-18 12:49 | 26.27133 | 50.63289 | 15 ft | 36 kts | 124° |
| 2026-02-18 12:49 | 26.26924 | 50.63455 | 18 ft | 16 kts | 212° |
| 2026-02-18 12:49 | 26.26843 | 50.63398 | 20 ft | 12 kts | 213° |
| 2026-02-18 12:50 | 26.26775 | 50.63361 | 21 ft | 10 kts | 194° |
| 2026-02-18 12:50 | 26.26713 | 50.63340 | 21 ft | 9 kts | 211° |
| 2026-02-18 12:50 | 26.26690 | 50.63323 | 22 ft | 2 kts | 213° |
| 2026-02-18 12:50 | 26.26687 | 50.63321 | 22 ft | 0 kts | 213° |